sensor_id;sensor_type;location;lat;lon;timestamp;P1;durP1;ratioP1;P2;durP2;ratioP2
62693;SDS011;48759;52.544;13.418;2023-02-10T00:01:22;27.43;;;11.93;;
62693;SDS011;48759;52.544;13.418;2023-02-10T00:03:51;25.40;;;11.40;;
62693;SDS011;48759;52.544;13.418;2023-02-10T00:06:19;18.40;;;11.53;;
62693;SDS011;48759;52.544;13.418;2023-02-10T00:08:47;17.53;;;11.47;;
62693;SDS011;48759;52.544;13.418;2023-02-10T00:11:14;23.03;;;12.77;;
62693;SDS011;48759;52.544;13.418;2023-02-10T00:13:42;21.23;;;12.50;;
62693;SDS011;48759;52.544;13.418;2023-02-10T00:16:10;18.90;;;11.37;;
62693;SDS011;48759;52.544;13.418;2023-02-10T00:18:38;20.40;;;11.00;;
62693;SDS011;48759;52.544;13.418;2023-02-10T00:21:08;21.70;;;11.70;;
62693;SDS011;48759;52.544;13.418;2023-02-10T00:23:36;20.47;;;11.50;;
62693;SDS011;48759;52.544;13.418;2023-02-10T00:26:03;15.53;;;11.00;;
62693;SDS011;48759;52.544;13.418;2023-02-10T00:28:30;27.93;;;12.60;;
62693;SDS011;48759;52.544;13.418;2023-02-10T00:30:58;20.60;;;12.27;;
62693;SDS011;48759;52.544;13.418;2023-02-10T00:33:24;21.00;;;11.50;;
62693;SDS011;48759;52.544;13.418;2023-02-10T00:35:51;20.07;;;11.53;;
62693;SDS011;48759;52.544;13.418;2023-02-10T00:38:19;21.60;;;11.47;;
62693;SDS011;48759;52.544;13.418;2023-02-10T00:40:46;20.47;;;9.97;;
62693;SDS011;48759;52.544;13.418;2023-02-10T00:43:12;21.30;;;10.97;;
62693;SDS011;48759;52.544;13.418;2023-02-10T00:45:39;20.40;;;11.17;;
62693;SDS011;48759;52.544;13.418;2023-02-10T00:48:05;19.80;;;11.90;;
62693;SDS011;48759;52.544;13.418;2023-02-10T00:50:32;18.73;;;11.30;;
62693;SDS011;48759;52.544;13.418;2023-02-10T00:52:59;18.63;;;11.00;;
62693;SDS011;48759;52.544;13.418;2023-02-10T00:55:27;20.60;;;11.73;;
62693;SDS011;48759;52.544;13.418;2023-02-10T00:57:53;22.07;;;11.60;;
62693;SDS011;48759;52.544;13.418;2023-02-10T01:00:20;20.10;;;11.23;;
62693;SDS011;48759;52.544;13.418;2023-02-10T01:02:47;19.33;;;10.47;;
62693;SDS011;48759;52.544;13.418;2023-02-10T01:05:13;19.57;;;11.27;;
62693;SDS011;48759;52.544;13.418;2023-02-10T01:07:40;20.50;;;11.07;;
62693;SDS011;48759;52.544;13.418;2023-02-10T01:10:07;16.43;;;10.80;;
62693;SDS011;48759;52.544;13.418;2023-02-10T01:12:35;17.27;;;10.60;;
62693;SDS011;48759;52.544;13.418;2023-02-10T01:15:02;20.87;;;12.10;;
62693;SDS011;48759;52.544;13.418;2023-02-10T01:17:28;20.20;;;11.70;;
62693;SDS011;48759;52.544;13.418;2023-02-10T01:19:55;27.00;;;12.37;;
62693;SDS011;48759;52.544;13.418;2023-02-10T01:22:22;20.83;;;11.53;;
62693;SDS011;48759;52.544;13.418;2023-02-10T01:24:48;20.90;;;11.20;;
62693;SDS011;48759;52.544;13.418;2023-02-10T01:27:15;18.17;;;11.80;;
62693;SDS011;48759;52.544;13.418;2023-02-10T01:29:43;24.10;;;12.00;;
62693;SDS011;48759;52.544;13.418;2023-02-10T01:32:09;21.90;;;11.50;;
62693;SDS011;48759;52.544;13.418;2023-02-10T01:34:36;18.97;;;11.00;;
62693;SDS011;48759;52.544;13.418;2023-02-10T01:37:03;21.70;;;12.00;;
62693;SDS011;48759;52.544;13.418;2023-02-10T01:39:29;21.00;;;10.70;;
62693;SDS011;48759;52.544;13.418;2023-02-10T01:41:56;27.53;;;11.87;;
62693;SDS011;48759;52.544;13.418;2023-02-10T01:47:27;23.83;;;12.10;;
62693;SDS011;48759;52.544;13.418;2023-02-10T01:49:54;24.23;;;11.70;;
62693;SDS011;48759;52.544;13.418;2023-02-10T01:52:22;20.53;;;11.40;;
62693;SDS011;48759;52.544;13.418;2023-02-10T01:54:55;18.73;;;11.97;;
62693;SDS011;48759;52.544;13.418;2023-02-10T01:57:25;23.23;;;12.70;;
62693;SDS011;48759;52.544;13.418;2023-02-10T01:59:52;23.60;;;13.07;;
62693;SDS011;48759;52.544;13.418;2023-02-10T02:02:19;25.10;;;12.60;;
62693;SDS011;48759;52.544;13.418;2023-02-10T02:04:48;23.70;;;13.03;;
62693;SDS011;48759;52.544;13.418;2023-02-10T02:07:16;23.80;;;12.60;;
62693;SDS011;48759;52.544;13.418;2023-02-10T02:09:44;30.97;;;14.87;;
62693;SDS011;48759;52.544;13.418;2023-02-10T02:12:14;24.33;;;13.60;;
62693;SDS011;48759;52.544;13.418;2023-02-10T02:14:49;27.93;;;15.20;;
62693;SDS011;48759;52.544;13.418;2023-02-10T02:17:24;26.27;;;13.83;;
62693;SDS011;48759;52.544;13.418;2023-02-10T02:23:21;25.83;;;13.93;;
62693;SDS011;48759;52.544;13.418;2023-02-10T02:26:15;29.50;;;13.80;;
62693;SDS011;48759;52.544;13.418;2023-02-10T02:28:58;30.43;;;13.13;;
62693;SDS011;48759;52.544;13.418;2023-02-10T02:31:42;23.43;;;13.03;;
62693;SDS011;48759;52.544;13.418;2023-02-10T02:34:19;21.73;;;13.10;;
62693;SDS011;48759;52.544;13.418;2023-02-10T02:36:53;32.17;;;14.40;;
62693;SDS011;48759;52.544;13.418;2023-02-10T02:39:23;23.00;;;13.27;;
62693;SDS011;48759;52.544;13.418;2023-02-10T02:41:58;31.73;;;15.40;;
62693;SDS011;48759;52.544;13.418;2023-02-10T02:44:37;24.07;;;14.50;;
62693;SDS011;48759;52.544;13.418;2023-02-10T02:47:06;31.80;;;13.90;;
62693;SDS011;48759;52.544;13.418;2023-02-10T02:49:40;24.83;;;13.30;;
62693;SDS011;48759;52.544;13.418;2023-02-10T02:52:11;27.87;;;14.67;;
62693;SDS011;48759;52.544;13.418;2023-02-10T02:54:43;28.63;;;14.97;;
62693;SDS011;48759;52.544;13.418;2023-02-10T02:57:15;24.23;;;13.80;;
62693;SDS011;48759;52.544;13.418;2023-02-10T02:59:50;26.87;;;13.07;;
62693;SDS011;48759;52.544;13.418;2023-02-10T03:02:24;26.33;;;14.30;;
62693;SDS011;48759;52.544;13.418;2023-02-10T03:04:54;30.37;;;15.13;;
62693;SDS011;48759;52.544;13.418;2023-02-10T03:07:21;30.10;;;16.40;;
62693;SDS011;48759;52.544;13.418;2023-02-10T03:09:47;27.53;;;15.77;;
62693;SDS011;48759;52.544;13.418;2023-02-10T03:12:14;27.47;;;15.30;;
62693;SDS011;48759;52.544;13.418;2023-02-10T03:14:41;29.43;;;16.30;;
62693;SDS011;48759;52.544;13.418;2023-02-10T03:17:07;26.20;;;15.70;;
62693;SDS011;48759;52.544;13.418;2023-02-10T03:19:35;23.97;;;14.67;;
62693;SDS011;48759;52.544;13.418;2023-02-10T03:22:02;26.83;;;15.20;;
62693;SDS011;48759;52.544;13.418;2023-02-10T03:24:28;27.87;;;15.07;;
62693;SDS011;48759;52.544;13.418;2023-02-10T03:26:55;37.07;;;16.30;;
62693;SDS011;48759;52.544;13.418;2023-02-10T03:29:22;31.60;;;15.97;;
62693;SDS011;48759;52.544;13.418;2023-02-10T03:31:49;30.37;;;16.70;;
62693;SDS011;48759;52.544;13.418;2023-02-10T03:34:16;30.07;;;15.40;;
62693;SDS011;48759;52.544;13.418;2023-02-10T03:36:44;30.63;;;15.73;;
62693;SDS011;48759;52.544;13.418;2023-02-10T03:39:10;27.03;;;15.90;;
62693;SDS011;48759;52.544;13.418;2023-02-10T03:41:37;25.10;;;14.80;;
62693;SDS011;48759;52.544;13.418;2023-02-10T03:44:04;35.90;;;15.90;;
62693;SDS011;48759;52.544;13.418;2023-02-10T03:46:31;30.00;;;17.83;;
62693;SDS011;48759;52.544;13.418;2023-02-10T03:48:57;31.73;;;18.30;;
62693;SDS011;48759;52.544;13.418;2023-02-10T03:51:24;37.40;;;16.60;;
62693;SDS011;48759;52.544;13.418;2023-02-10T03:53:52;33.87;;;17.40;;
62693;SDS011;48759;52.544;13.418;2023-02-10T03:56:18;43.33;;;19.77;;
62693;SDS011;48759;52.544;13.418;2023-02-10T03:58:45;34.80;;;18.40;;
62693;SDS011;48759;52.544;13.418;2023-02-10T04:01:12;31.07;;;16.90;;
62693;SDS011;48759;52.544;13.418;2023-02-10T04:03:40;34.63;;;18.10;;
62693;SDS011;48759;52.544;13.418;2023-02-10T04:06:07;35.13;;;16.90;;
62693;SDS011;48759;52.544;13.418;2023-02-10T04:08:35;34.73;;;19.33;;
62693;SDS011;48759;52.544;13.418;2023-02-10T04:11:03;28.77;;;17.17;;
62693;SDS011;48759;52.544;13.418;2023-02-10T04:13:31;32.53;;;17.53;;
62693;SDS011;48759;52.544;13.418;2023-02-10T04:16:01;35.30;;;17.33;;
62693;SDS011;48759;52.544;13.418;2023-02-10T04:18:29;32.00;;;18.10;;
62693;SDS011;48759;52.544;13.418;2023-02-10T04:20:56;34.90;;;17.30;;
62693;SDS011;48759;52.544;13.418;2023-02-10T04:23:23;35.10;;;17.13;;
62693;SDS011;48759;52.544;13.418;2023-02-10T04:25:50;29.33;;;16.60;;
62693;SDS011;48759;52.544;13.418;2023-02-10T04:28:18;37.43;;;18.50;;
62693;SDS011;48759;52.544;13.418;2023-02-10T04:30:44;38.57;;;19.17;;
62693;SDS011;48759;52.544;13.418;2023-02-10T04:33:11;35.03;;;19.00;;
62693;SDS011;48759;52.544;13.418;2023-02-10T04:35:38;47.37;;;19.40;;
62693;SDS011;48759;52.544;13.418;2023-02-10T04:38:04;31.13;;;17.70;;
62693;SDS011;48759;52.544;13.418;2023-02-10T04:40:31;35.63;;;17.50;;
62693;SDS011;48759;52.544;13.418;2023-02-10T04:42:57;41.20;;;19.40;;
62693;SDS011;48759;52.544;13.418;2023-02-10T04:45:25;44.37;;;21.07;;
62693;SDS011;48759;52.544;13.418;2023-02-10T04:47:52;40.13;;;21.73;;
62693;SDS011;48759;52.544;13.418;2023-02-10T04:50:19;40.93;;;20.77;;
62693;SDS011;48759;52.544;13.418;2023-02-10T04:52:45;38.50;;;22.73;;
62693;SDS011;48759;52.544;13.418;2023-02-10T04:55:12;40.20;;;20.87;;
62693;SDS011;48759;52.544;13.418;2023-02-10T04:57:38;46.27;;;20.47;;
62693;SDS011;48759;52.544;13.418;2023-02-10T05:00:05;41.13;;;21.03;;
62693;SDS011;48759;52.544;13.418;2023-02-10T05:02:34;38.80;;;20.10;;
62693;SDS011;48759;52.544;13.418;2023-02-10T05:05:01;38.97;;;20.37;;
62693;SDS011;48759;52.544;13.418;2023-02-10T05:07:27;49.37;;;21.67;;
62693;SDS011;48759;52.544;13.418;2023-02-10T05:09:54;40.43;;;21.10;;
62693;SDS011;48759;52.544;13.418;2023-02-10T05:12:21;39.93;;;21.47;;
62693;SDS011;48759;52.544;13.418;2023-02-10T05:14:47;37.93;;;20.93;;
62693;SDS011;48759;52.544;13.418;2023-02-10T05:17:14;42.57;;;21.33;;
62693;SDS011;48759;52.544;13.418;2023-02-10T05:19:42;39.57;;;19.40;;
62693;SDS011;48759;52.544;13.418;2023-02-10T05:22:09;33.50;;;19.37;;
62693;SDS011;48759;52.544;13.418;2023-02-10T05:24:35;42.33;;;21.07;;
62693;SDS011;48759;52.544;13.418;2023-02-10T05:27:02;48.60;;;20.20;;
62693;SDS011;48759;52.544;13.418;2023-02-10T05:29:29;41.67;;;20.63;;
62693;SDS011;48759;52.544;13.418;2023-02-10T05:31:56;39.90;;;21.10;;
62693;SDS011;48759;52.544;13.418;2023-02-10T05:34:23;52.90;;;21.43;;
62693;SDS011;48759;52.544;13.418;2023-02-10T05:36:54;43.87;;;20.23;;
62693;SDS011;48759;52.544;13.418;2023-02-10T05:39:21;38.73;;;21.33;;
62693;SDS011;48759;52.544;13.418;2023-02-10T05:41:51;47.30;;;21.97;;
62693;SDS011;48759;52.544;13.418;2023-02-10T05:44:18;40.00;;;20.37;;
62693;SDS011;48759;52.544;13.418;2023-02-10T05:46:45;51.03;;;22.13;;
62693;SDS011;48759;52.544;13.418;2023-02-10T05:49:12;46.10;;;21.37;;
62693;SDS011;48759;52.544;13.418;2023-02-10T05:51:39;42.77;;;22.00;;
62693;SDS011;48759;52.544;13.418;2023-02-10T05:54:07;49.80;;;24.47;;
62693;SDS011;48759;52.544;13.418;2023-02-10T05:56:33;43.03;;;22.50;;
62693;SDS011;48759;52.544;13.418;2023-02-10T05:59:00;48.77;;;23.90;;
62693;SDS011;48759;52.544;13.418;2023-02-10T06:01:27;41.40;;;21.27;;
62693;SDS011;48759;52.544;13.418;2023-02-10T06:03:54;44.73;;;21.83;;
62693;SDS011;48759;52.544;13.418;2023-02-10T06:06:21;40.13;;;21.67;;
62693;SDS011;48759;52.544;13.418;2023-02-10T06:08:48;44.37;;;24.10;;
62693;SDS011;48759;52.544;13.418;2023-02-10T06:11:16;43.33;;;22.73;;
62693;SDS011;48759;52.544;13.418;2023-02-10T06:13:42;38.80;;;20.10;;
62693;SDS011;48759;52.544;13.418;2023-02-10T06:16:09;46.77;;;24.30;;
62693;SDS011;48759;52.544;13.418;2023-02-10T06:18:36;46.60;;;21.27;;
62693;SDS011;48759;52.544;13.418;2023-02-10T06:21:03;54.40;;;23.37;;
62693;SDS011;48759;52.544;13.418;2023-02-10T06:23:30;46.07;;;21.93;;
62693;SDS011;48759;52.544;13.418;2023-02-10T06:25:56;47.73;;;21.40;;
62693;SDS011;48759;52.544;13.418;2023-02-10T06:28:25;50.83;;;21.37;;
62693;SDS011;48759;52.544;13.418;2023-02-10T06:30:53;47.13;;;21.50;;
62693;SDS011;48759;52.544;13.418;2023-02-10T06:33:20;54.83;;;24.83;;
62693;SDS011;48759;52.544;13.418;2023-02-10T06:35:47;43.50;;;21.83;;
62693;SDS011;48759;52.544;13.418;2023-02-10T06:38:14;44.50;;;22.07;;
62693;SDS011;48759;52.544;13.418;2023-02-10T06:40:41;45.63;;;22.30;;
62693;SDS011;48759;52.544;13.418;2023-02-10T06:43:07;37.97;;;20.60;;
62693;SDS011;48759;52.544;13.418;2023-02-10T06:45:35;45.47;;;23.53;;
62693;SDS011;48759;52.544;13.418;2023-02-10T06:48:02;44.50;;;21.50;;
62693;SDS011;48759;52.544;13.418;2023-02-10T06:50:29;44.40;;;22.63;;
62693;SDS011;48759;52.544;13.418;2023-02-10T06:52:55;43.80;;;21.60;;
62693;SDS011;48759;52.544;13.418;2023-02-10T06:55:22;44.80;;;21.17;;
62693;SDS011;48759;52.544;13.418;2023-02-10T06:57:49;46.20;;;21.57;;
62693;SDS011;48759;52.544;13.418;2023-02-10T07:00:15;46.73;;;22.37;;
62693;SDS011;48759;52.544;13.418;2023-02-10T07:02:43;46.60;;;20.90;;
62693;SDS011;48759;52.544;13.418;2023-02-10T07:05:10;43.97;;;21.57;;
62693;SDS011;48759;52.544;13.418;2023-02-10T07:07:37;41.07;;;20.83;;
62693;SDS011;48759;52.544;13.418;2023-02-10T07:10:04;45.50;;;21.83;;
62693;SDS011;48759;52.544;13.418;2023-02-10T07:12:33;39.03;;;21.93;;
62693;SDS011;48759;52.544;13.418;2023-02-10T07:15:00;44.07;;;22.63;;
62693;SDS011;48759;52.544;13.418;2023-02-10T07:17:26;46.27;;;22.30;;
62693;SDS011;48759;52.544;13.418;2023-02-10T07:19:54;41.30;;;22.20;;
62693;SDS011;48759;52.544;13.418;2023-02-10T07:22:21;41.53;;;20.87;;
62693;SDS011;48759;52.544;13.418;2023-02-10T07:24:48;43.37;;;20.67;;
62693;SDS011;48759;52.544;13.418;2023-02-10T07:27:14;37.83;;;20.37;;
62693;SDS011;48759;52.544;13.418;2023-02-10T07:29:41;40.90;;;21.10;;
62693;SDS011;48759;52.544;13.418;2023-02-10T07:32:07;49.67;;;21.37;;
62693;SDS011;48759;52.544;13.418;2023-02-10T07:34:34;53.43;;;20.43;;
62693;SDS011;48759;52.544;13.418;2023-02-10T07:37:02;46.30;;;20.53;;
62693;SDS011;48759;52.544;13.418;2023-02-10T07:39:29;45.03;;;20.30;;
62693;SDS011;48759;52.544;13.418;2023-02-10T07:41:55;39.10;;;20.63;;
62693;SDS011;48759;52.544;13.418;2023-02-10T07:44:22;35.60;;;19.37;;
62693;SDS011;48759;52.544;13.418;2023-02-10T07:46:50;42.57;;;19.87;;
62693;SDS011;48759;52.544;13.418;2023-02-10T07:49:17;43.10;;;20.90;;
62693;SDS011;48759;52.544;13.418;2023-02-10T07:51:44;41.07;;;20.50;;
62693;SDS011;48759;52.544;13.418;2023-02-10T07:54:12;46.10;;;21.33;;
62693;SDS011;48759;52.544;13.418;2023-02-10T07:56:39;41.57;;;20.70;;
62693;SDS011;48759;52.544;13.418;2023-02-10T07:59:05;50.80;;;20.70;;
62693;SDS011;48759;52.544;13.418;2023-02-10T08:01:32;50.10;;;21.53;;
62693;SDS011;48759;52.544;13.418;2023-02-10T08:04:01;43.77;;;20.80;;
62693;SDS011;48759;52.544;13.418;2023-02-10T08:06:28;49.23;;;20.57;;
62693;SDS011;48759;52.544;13.418;2023-02-10T08:08:55;48.10;;;20.80;;
62693;SDS011;48759;52.544;13.418;2023-02-10T08:11:23;37.50;;;21.00;;
62693;SDS011;48759;52.544;13.418;2023-02-10T08:13:49;46.93;;;22.50;;
62693;SDS011;48759;52.544;13.418;2023-02-10T08:16:16;44.90;;;20.77;;
62693;SDS011;48759;52.544;13.418;2023-02-10T08:18:43;45.50;;;20.33;;
62693;SDS011;48759;52.544;13.418;2023-02-10T08:21:09;46.17;;;22.20;;
62693;SDS011;48759;52.544;13.418;2023-02-10T08:23:36;39.33;;;20.20;;
62693;SDS011;48759;52.544;13.418;2023-02-10T08:26:04;41.07;;;21.70;;
62693;SDS011;48759;52.544;13.418;2023-02-10T08:28:33;35.80;;;20.70;;
62693;SDS011;48759;52.544;13.418;2023-02-10T08:31:00;45.03;;;22.00;;
62693;SDS011;48759;52.544;13.418;2023-02-10T08:33:27;39.70;;;21.10;;
62693;SDS011;48759;52.544;13.418;2023-02-10T08:35:55;42.50;;;22.07;;
62693;SDS011;48759;52.544;13.418;2023-02-10T08:38:22;40.80;;;21.90;;
62693;SDS011;48759;52.544;13.418;2023-02-10T08:40:53;38.50;;;21.33;;
62693;SDS011;48759;52.544;13.418;2023-02-10T08:43:21;46.23;;;21.67;;
62693;SDS011;48759;52.544;13.418;2023-02-10T08:45:49;40.77;;;18.73;;
62693;SDS011;48759;52.544;13.418;2023-02-10T08:48:16;43.30;;;21.97;;
62693;SDS011;48759;52.544;13.418;2023-02-10T08:50:42;47.80;;;23.10;;
62693;SDS011;48759;52.544;13.418;2023-02-10T08:53:09;47.37;;;20.20;;
62693;SDS011;48759;52.544;13.418;2023-02-10T08:55:36;48.27;;;21.70;;
62693;SDS011;48759;52.544;13.418;2023-02-10T08:58:04;39.77;;;20.70;;
62693;SDS011;48759;52.544;13.418;2023-02-10T09:00:30;46.67;;;22.57;;
62693;SDS011;48759;52.544;13.418;2023-02-10T09:02:59;41.30;;;20.40;;
62693;SDS011;48759;52.544;13.418;2023-02-10T09:05:26;39.03;;;22.13;;
62693;SDS011;48759;52.544;13.418;2023-02-10T09:07:53;49.83;;;22.40;;
62693;SDS011;48759;52.544;13.418;2023-02-10T09:10:19;56.37;;;22.80;;
62693;SDS011;48759;52.544;13.418;2023-02-10T09:12:46;50.87;;;23.77;;
62693;SDS011;48759;52.544;13.418;2023-02-10T09:15:13;43.90;;;22.07;;
62693;SDS011;48759;52.544;13.418;2023-02-10T09:17:40;45.87;;;22.50;;
62693;SDS011;48759;52.544;13.418;2023-02-10T09:20:08;51.10;;;23.00;;
62693;SDS011;48759;52.544;13.418;2023-02-10T09:22:36;46.97;;;24.83;;
62693;SDS011;48759;52.544;13.418;2023-02-10T09:25:03;44.70;;;21.50;;
62693;SDS011;48759;52.544;13.418;2023-02-10T09:27:30;58.30;;;25.70;;
62693;SDS011;48759;52.544;13.418;2023-02-10T09:29:57;45.60;;;22.20;;
62693;SDS011;48759;52.544;13.418;2023-02-10T09:32:24;54.67;;;23.27;;
62693;SDS011;48759;52.544;13.418;2023-02-10T09:34:50;50.23;;;25.77;;
62693;SDS011;48759;52.544;13.418;2023-02-10T09:37:18;50.13;;;23.87;;
62693;SDS011;48759;52.544;13.418;2023-02-10T09:39:46;44.57;;;24.50;;
62693;SDS011;48759;52.544;13.418;2023-02-10T09:42:16;42.87;;;23.10;;
62693;SDS011;48759;52.544;13.418;2023-02-10T09:44:51;49.57;;;24.77;;
62693;SDS011;48759;52.544;13.418;2023-02-10T09:47:24;47.10;;;24.67;;
62693;SDS011;48759;52.544;13.418;2023-02-10T09:50:13;55.97;;;24.57;;
62693;SDS011;48759;52.544;13.418;2023-02-10T09:52:53;48.30;;;23.97;;
62693;SDS011;48759;52.544;13.418;2023-02-10T09:55:29;52.50;;;22.87;;
62693;SDS011;48759;52.544;13.418;2023-02-10T09:57:58;48.80;;;23.43;;
62693;SDS011;48759;52.544;13.418;2023-02-10T10:00:28;49.83;;;25.70;;
62693;SDS011;48759;52.544;13.418;2023-02-10T10:02:57;50.57;;;24.43;;
62693;SDS011;48759;52.544;13.418;2023-02-10T10:05:29;40.73;;;23.00;;
62693;SDS011;48759;52.544;13.418;2023-02-10T10:08:07;51.00;;;23.20;;
62693;SDS011;48759;52.544;13.418;2023-02-10T10:10:44;54.67;;;24.13;;
62693;SDS011;48759;52.544;13.418;2023-02-10T10:13:13;47.23;;;21.93;;
62693;SDS011;48759;52.544;13.418;2023-02-10T10:15:45;44.50;;;23.77;;
62693;SDS011;48759;52.544;13.418;2023-02-10T10:18:24;44.77;;;21.90;;
62693;SDS011;48759;52.544;13.418;2023-02-10T10:21:02;50.30;;;24.30;;
62693;SDS011;48759;52.544;13.418;2023-02-10T10:23:41;55.13;;;24.40;;
62693;SDS011;48759;52.544;13.418;2023-02-10T10:26:19;49.20;;;24.67;;
62693;SDS011;48759;52.544;13.418;2023-02-10T10:29:03;45.33;;;24.10;;
62693;SDS011;48759;52.544;13.418;2023-02-10T10:31:40;48.73;;;23.63;;
62693;SDS011;48759;52.544;13.418;2023-02-10T10:34:10;41.47;;;21.77;;
62693;SDS011;48759;52.544;13.418;2023-02-10T10:36:42;48.93;;;23.57;;
62693;SDS011;48759;52.544;13.418;2023-02-10T10:39:13;50.70;;;23.67;;
62693;SDS011;48759;52.544;13.418;2023-02-10T10:41:43;47.73;;;23.30;;
62693;SDS011;48759;52.544;13.418;2023-02-10T10:44:11;47.27;;;23.90;;
62693;SDS011;48759;52.544;13.418;2023-02-10T10:46:43;48.13;;;23.27;;
62693;SDS011;48759;52.544;13.418;2023-02-10T10:49:13;47.50;;;21.77;;
62693;SDS011;48759;52.544;13.418;2023-02-10T10:51:40;50.47;;;22.40;;
62693;SDS011;48759;52.544;13.418;2023-02-10T10:54:10;45.63;;;24.07;;
62693;SDS011;48759;52.544;13.418;2023-02-10T10:56:42;49.57;;;22.67;;
62693;SDS011;48759;52.544;13.418;2023-02-10T10:59:14;47.80;;;22.27;;
62693;SDS011;48759;52.544;13.418;2023-02-10T11:01:42;47.87;;;21.03;;
62693;SDS011;48759;52.544;13.418;2023-02-10T11:04:12;49.27;;;21.27;;
62693;SDS011;48759;52.544;13.418;2023-02-10T11:06:41;45.37;;;21.80;;
62693;SDS011;48759;52.544;13.418;2023-02-10T11:09:24;44.17;;;20.10;;
62693;SDS011;48759;52.544;13.418;2023-02-10T11:12:00;45.73;;;20.73;;
62693;SDS011;48759;52.544;13.418;2023-02-10T11:14:28;44.60;;;21.40;;
62693;SDS011;48759;52.544;13.418;2023-02-10T11:17:02;43.53;;;19.90;;
62693;SDS011;48759;52.544;13.418;2023-02-10T11:19:30;36.83;;;19.20;;
62693;SDS011;48759;52.544;13.418;2023-02-10T11:21:58;47.27;;;20.80;;
62693;SDS011;48759;52.544;13.418;2023-02-10T11:24:27;37.33;;;19.20;;
62693;SDS011;48759;52.544;13.418;2023-02-10T11:26:57;37.67;;;19.67;;
62693;SDS011;48759;52.544;13.418;2023-02-10T11:29:25;41.40;;;20.20;;
62693;SDS011;48759;52.544;13.418;2023-02-10T11:31:53;39.33;;;18.97;;
62693;SDS011;48759;52.544;13.418;2023-02-10T11:34:22;46.33;;;20.43;;
62693;SDS011;48759;52.544;13.418;2023-02-10T11:36:52;57.93;;;20.10;;
62693;SDS011;48759;52.544;13.418;2023-02-10T11:39:22;42.67;;;20.40;;
62693;SDS011;48759;52.544;13.418;2023-02-10T11:41:52;42.37;;;20.10;;
62693;SDS011;48759;52.544;13.418;2023-02-10T11:44:22;40.97;;;19.60;;
62693;SDS011;48759;52.544;13.418;2023-02-10T11:46:55;41.73;;;18.43;;
62693;SDS011;48759;52.544;13.418;2023-02-10T11:49:23;40.60;;;20.47;;
62693;SDS011;48759;52.544;13.418;2023-02-10T11:51:54;47.60;;;19.90;;
62693;SDS011;48759;52.544;13.418;2023-02-10T11:54:22;45.40;;;20.97;;
62693;SDS011;48759;52.544;13.418;2023-02-10T11:56:51;38.50;;;20.10;;
62693;SDS011;48759;52.544;13.418;2023-02-10T11:59:48;42.33;;;18.60;;
62693;SDS011;48759;52.544;13.418;2023-02-10T12:02:23;37.63;;;19.33;;
62693;SDS011;48759;52.544;13.418;2023-02-10T12:05:02;41.13;;;19.87;;
62693;SDS011;48759;52.544;13.418;2023-02-10T12:07:43;41.10;;;22.67;;
62693;SDS011;48759;52.544;13.418;2023-02-10T12:10:23;41.40;;;19.23;;
62693;SDS011;48759;52.544;13.418;2023-02-10T12:12:57;47.53;;;20.37;;
62693;SDS011;48759;52.544;13.418;2023-02-10T12:15:37;47.50;;;21.10;;
62693;SDS011;48759;52.544;13.418;2023-02-10T12:18:12;43.53;;;21.33;;
62693;SDS011;48759;52.544;13.418;2023-02-10T12:20:51;42.40;;;20.00;;
62693;SDS011;48759;52.544;13.418;2023-02-10T12:23:37;46.43;;;20.80;;
62693;SDS011;48759;52.544;13.418;2023-02-10T12:26:18;41.33;;;21.57;;
62693;SDS011;48759;52.544;13.418;2023-02-10T12:28:56;42.20;;;21.50;;
62693;SDS011;48759;52.544;13.418;2023-02-10T12:31:32;36.47;;;20.70;;
62693;SDS011;48759;52.544;13.418;2023-02-10T12:34:14;46.23;;;19.37;;
62693;SDS011;48759;52.544;13.418;2023-02-10T12:36:55;45.57;;;22.53;;
62693;SDS011;48759;52.544;13.418;2023-02-10T12:39:30;53.60;;;22.60;;
62693;SDS011;48759;52.544;13.418;2023-02-10T12:42:06;41.10;;;20.93;;
62693;SDS011;48759;52.544;13.418;2023-02-10T12:44:48;37.87;;;20.00;;
62693;SDS011;48759;52.544;13.418;2023-02-10T12:47:27;38.13;;;18.90;;
62693;SDS011;48759;52.544;13.418;2023-02-10T12:50:20;38.77;;;20.37;;
62693;SDS011;48759;52.544;13.418;2023-02-10T12:52:56;52.90;;;19.77;;
62693;SDS011;48759;52.544;13.418;2023-02-10T12:55:29;43.03;;;18.23;;
62693;SDS011;48759;52.544;13.418;2023-02-10T12:58:09;42.83;;;18.93;;
62693;SDS011;48759;52.544;13.418;2023-02-10T13:00:42;39.57;;;18.20;;
62693;SDS011;48759;52.544;13.418;2023-02-10T13:03:13;45.97;;;20.63;;
62693;SDS011;48759;52.544;13.418;2023-02-10T13:05:45;43.33;;;22.83;;
62693;SDS011;48759;52.544;13.418;2023-02-10T13:08:17;41.77;;;19.67;;
62693;SDS011;48759;52.544;13.418;2023-02-10T13:10:50;38.67;;;18.60;;
62693;SDS011;48759;52.544;13.418;2023-02-10T13:13:22;33.13;;;17.67;;
62693;SDS011;48759;52.544;13.418;2023-02-10T13:15:53;46.03;;;20.77;;
62693;SDS011;48759;52.544;13.418;2023-02-10T13:18:25;55.73;;;32.57;;
62693;SDS011;48759;52.544;13.418;2023-02-10T13:20:58;33.83;;;18.77;;
62693;SDS011;48759;52.544;13.418;2023-02-10T13:23:31;36.93;;;18.13;;
62693;SDS011;48759;52.544;13.418;2023-02-10T13:26:13;33.33;;;18.20;;
62693;SDS011;48759;52.544;13.418;2023-02-10T13:28:49;30.40;;;16.80;;
62693;SDS011;48759;52.544;13.418;2023-02-10T13:31:30;31.53;;;16.20;;
62693;SDS011;48759;52.544;13.418;2023-02-10T13:34:13;32.57;;;18.37;;
62693;SDS011;48759;52.544;13.418;2023-02-10T13:36:45;30.10;;;17.10;;
62693;SDS011;48759;52.544;13.418;2023-02-10T13:39:17;26.93;;;16.17;;
62693;SDS011;48759;52.544;13.418;2023-02-10T13:41:47;35.07;;;18.50;;
62693;SDS011;48759;52.544;13.418;2023-02-10T13:44:18;36.00;;;17.60;;
62693;SDS011;48759;52.544;13.418;2023-02-10T13:46:52;33.70;;;16.77;;
62693;SDS011;48759;52.544;13.418;2023-02-10T13:49:22;33.73;;;19.10;;
62693;SDS011;48759;52.544;13.418;2023-02-10T13:51:50;32.53;;;17.07;;
62693;SDS011;48759;52.544;13.418;2023-02-10T13:54:26;35.00;;;16.20;;
62693;SDS011;48759;52.544;13.418;2023-02-10T13:56:56;34.00;;;15.80;;
62693;SDS011;48759;52.544;13.418;2023-02-10T13:59:24;37.53;;;17.50;;
62693;SDS011;48759;52.544;13.418;2023-02-10T14:02:02;40.80;;;18.73;;
62693;SDS011;48759;52.544;13.418;2023-02-10T14:04:41;33.33;;;16.30;;
62693;SDS011;48759;52.544;13.418;2023-02-10T14:07:14;37.50;;;17.73;;
62693;SDS011;48759;52.544;13.418;2023-02-10T14:09:42;54.03;;;24.30;;
62693;SDS011;48759;52.544;13.418;2023-02-10T14:12:24;38.13;;;17.70;;
62693;SDS011;48759;52.544;13.418;2023-02-10T14:14:53;41.27;;;16.37;;
62693;SDS011;48759;52.544;13.418;2023-02-10T14:17:22;35.13;;;17.93;;
62693;SDS011;48759;52.544;13.418;2023-02-10T14:19:54;31.40;;;17.50;;
62693;SDS011;48759;52.544;13.418;2023-02-10T14:22:23;46.87;;;23.33;;
62693;SDS011;48759;52.544;13.418;2023-02-10T14:24:52;33.40;;;17.53;;
62693;SDS011;48759;52.544;13.418;2023-02-10T14:27:23;33.50;;;16.13;;
62693;SDS011;48759;52.544;13.418;2023-02-10T14:29:53;30.73;;;16.03;;